Stations météo

réclame
Mon MeteoGroup
P11-B, Pays-Bas (6203): Température de l'air: 11.11.2017 18:00:00 - 17.11.2017 18:00:00 (CET)P11-B, Pays-Bas (6203): Vitesse du vent & gusts: 11.11.2017 18:00:00 - 17.11.2017 18:00:00 (CET)P11-B, Pays-Bas (6203): Direction du vent: 11.11.2017 18:00:00 - 17.11.2017 18:00:00 (CET)P11-B, Pays-Bas (6203): reduced air pressure: 11.11.2017 18:00:00 - 17.11.2017 18:00:00 (CET)P11-B, Pays-Bas (6203): visibility: 11.11.2017 18:00:00 - 17.11.2017 18:00:00 (CET)
Date & Time tt [°C] ff [km/h] ff [knt] fx [km/h] fx [knt] dd ppp [hPa] vv [km]
17.11.2017 18:00:00 9,3 18 10 32 18 W 1026,1 10
17.11.2017 17:00:00 9,2 28 15 29 16 - 1026,6 10
17.11.2017 16:00:00 9,3 28 15 - - - 1026,8 10
17.11.2017 15:00:00 9,1 18 10 25 14 - 1026,8 10
17.11.2017 14:00:00 9,9 18 10 29 16 W 1027,7 10
17.11.2017 13:00:00 9,4 21 11 - - - 1027,9 10
17.11.2017 12:00:00 9,4 16 9 22 12 - 1028,2 10
17.11.2017 11:00:00 9,9 13 7 22 12 W 1028,2 10
17.11.2017 10:00:00 9,9 9 5 - - W 1028,1 10
17.11.2017 09:00:00 9,7 11 6 22 12 WNW 1028,0 10
17.11.2017 08:00:00 10,0 15 8 22 12 NW 1027,6 10
17.11.2017 07:00:00 10,2 13 7 - - NW 1027,5 10
17.11.2017 06:00:00 10,3 13 7 22 12 WNW 1027,0 10
17.11.2017 05:00:00 10,2 15 8 25 14 - 1026,9 10
17.11.2017 04:00:00 10,3 16 9 - - NNW 1026,6 10
17.11.2017 03:00:00 10,5 18 10 29 16 NW 1026,6 10
17.11.2017 02:00:00 10,5 21 11 29 16 NNW 1026,3 10
17.11.2017 01:00:00 10,5 26 14 - - NW 1026,0 10
17.11.2017 00:00:00 10,4 24 13 36 19 NNW 1025,5 10
16.11.2017 23:00:00 10,5 28 15 36 19 - 1025,1 10
16.11.2017 22:00:00 10,6 35 19 - - NNW 1024,7 10
16.11.2017 21:00:00 11,0 37 20 43 23 NW 1023,7 10
16.11.2017 20:00:00 11,5 34 18 43 23 NW 1022,9 10
16.11.2017 19:00:00 10,2 35 19 - - W 1022,2 9
16.11.2017 18:00:00 12,4 31 17 43 23 - 1021,1 10
16.11.2017 17:00:00 12,6 37 20 40 21 - 1020,7 10
16.11.2017 16:00:00 12,6 35 19 - - WSW 1020,5 10
16.11.2017 15:00:00 12,4 35 19 32 18 SW 1020,4 10
16.11.2017 14:00:00 12,5 34 18 32 18 SW 1020,7 10
16.11.2017 13:00:00 12,6 29 16 - - SW 1021,0 10
16.11.2017 12:00:00 12,7 35 19 32 18 SW 1021,1 10
16.11.2017 11:00:00 12,6 31 17 32 18 SW 1021,2 10
16.11.2017 10:00:00 12,3 31 17 - - SSW 1021,0 6
16.11.2017 09:00:00 12,4 28 15 29 16 SSW 1020,9 10
16.11.2017 08:00:00 12,6 28 15 25 14 SW 1020,9 10
16.11.2017 07:00:00 12,4 24 13 - - SW 1020,9 10
16.11.2017 06:00:00 12,4 28 15 25 14 SW 1021,0 10
16.11.2017 05:00:00 12,3 24 13 25 14 SW 1021,2 10
16.11.2017 04:00:00 12,2 18 10 - - SW 1021,4 10
16.11.2017 03:00:00 11,6 21 11 32 18 SW 1022,1 10
16.11.2017 02:00:00 11,9 24 13 29 16 S 1022,2 10
16.11.2017 01:00:00 12,2 24 13 - - SSW 1022,5 10
16.11.2017 00:00:00 12,1 15 8 18 10 SSW 1022,8 10
15.11.2017 23:00:00 11,7 11 6 14 8 - 1023,3 10
15.11.2017 22:00:00 11,4 13 7 - - SSW 1023,4 10
15.11.2017 21:00:00 11,8 11 6 14 8 WSW 1023,9 10
15.11.2017 20:00:00 12,1 9 5 11 6 WSW 1023,9 10
15.11.2017 19:00:00 12,0 13 7 - - SW 1023,7 10
15.11.2017 18:00:00 12,1 13 7 14 8 WSW 1023,8 10
15.11.2017 17:00:00 11,9 11 6 18 10 - 1023,8 10
15.11.2017 16:00:00 11,8 15 8 - - W 1024,1 10
15.11.2017 15:00:00 12,2 16 9 18 10 WSW 1024,0 10
15.11.2017 14:00:00 12,2 16 9 18 10 WSW 1023,8 10
15.11.2017 13:00:00 12,2 15 8 - - WSW 1024,1 10
15.11.2017 12:00:00 12,3 15 8 18 10 - 1024,3 10
15.11.2017 11:00:00 12,2 13 7 18 10 WSW 1024,3 10
15.11.2017 10:00:00 12,1 16 9 - - WSW 1023,9 10
15.11.2017 09:00:00 12,1 16 9 25 14 WSW 1023,8 10
15.11.2017 08:00:00 11,8 21 11 22 12 SW 1023,5 10
15.11.2017 07:00:00 11,5 18 10 - - SW 1023,1 10
15.11.2017 06:00:00 11,8 21 11 29 16 SW 1023,1 10
15.11.2017 05:00:00 11,7 24 13 25 14 WSW 1022,9 10
15.11.2017 04:00:00 11,7 28 15 - - WSW 1022,9 10
15.11.2017 03:00:00 12,0 29 16 29 16 WSW 1023,1 10
15.11.2017 02:00:00 12,1 29 16 29 16 WSW 1023,1 10
15.11.2017 01:00:00 12,1 26 14 - - WSW 1023,1 10
15.11.2017 00:00:00 12,0 26 14 29 16 WSW 1023,1 10
14.11.2017 23:00:00 12,0 26 14 29 16 WSW 1022,9 10
14.11.2017 22:00:00 12,1 26 14 - - SW 1022,8 10
14.11.2017 21:00:00 12,1 24 13 29 16 WSW 1022,9 10
14.11.2017 20:00:00 12,0 28 15 29 16 WSW 1022,6 10
14.11.2017 19:00:00 11,8 26 14 - - - 1022,4 10
14.11.2017 18:00:00 11,7 26 14 29 16 W 1022,1 10
14.11.2017 17:00:00 11,6 28 15 32 18 - 1021,8 10
14.11.2017 16:00:00 11,7 26 14 - - - 1021,8 10
14.11.2017 15:00:00 11,3 34 18 36 19 W 1021,4 10
14.11.2017 14:00:00 10,5 35 19 40 21 - 1021,4 4,5
14.11.2017 13:00:00 10,5 37 20 - - - 1021,4 6
14.11.2017 12:00:00 9,9 39 21 43 23 WSW 1021,7 3,5
14.11.2017 11:00:00 9,8 44 24 43 23 WSW 1021,2 8
14.11.2017 10:00:00 9,9 44 24 - - WSW 1021,0 10
14.11.2017 09:00:00 10,5 46 25 50 27 WSW 1020,8 10
14.11.2017 08:00:00 10,2 46 25 47 25 WSW 1020,5 10
14.11.2017 07:00:00 10,1 48 26 - - WSW 1020,9 10
14.11.2017 06:00:00 9,8 44 24 47 25 WSW 1021,1 10
14.11.2017 05:00:00 9,5 41 22 43 23 WSW 1021,2 10
14.11.2017 04:00:00 9,0 41 22 - - WSW 1022,0 10
14.11.2017 03:00:00 8,7 39 21 40 21 WSW 1022,3 10
14.11.2017 02:00:00 8,8 34 18 32 18 WSW 1022,9 10
14.11.2017 01:00:00 8,7 28 15 - - - 1023,3 10
14.11.2017 00:00:00 9,0 22 12 29 16 - 1023,2 10
13.11.2017 23:00:00 9,5 11 6 25 14 WNW 1023,5 10
13.11.2017 22:00:00 9,2 21 11 - - W 1023,5 10
13.11.2017 21:00:00 9,4 18 10 29 16 NW 1023,5 10
13.11.2017 20:00:00 9,6 22 12 32 18 NW 1023,5 10
13.11.2017 19:00:00 9,7 24 13 - - NW 1023,4 10
13.11.2017 18:00:00 9,9 28 15 40 21 NW 1023,0 10
13.11.2017 17:00:00 10,0 29 16 40 21 NNW 1022,5 10
13.11.2017 16:00:00 9,5 39 21 - - NNW 1022,4 10
13.11.2017 15:00:00 10,0 31 17 43 23 NNW 1021,9 10
13.11.2017 14:00:00 10,0 31 17 50 27 NNW 1021,6 10
13.11.2017 13:00:00 9,2 26 14 50 27 - 1021,8 10
13.11.2017 12:00:00 10,2 42 23 50 27 NNW 1021,3 10
13.11.2017 11:00:00 10,0 37 20 47 25 NNW 1020,8 10
13.11.2017 10:00:00 9,8 37 20 54 29 NNW 1020,3 10
13.11.2017 09:00:00 10,1 42 23 54 29 NNW 1019,6 10
13.11.2017 08:00:00 9,7 50 27 58 31 NNW 1018,6 10
13.11.2017 07:00:00 9,9 46 25 61 33 NNW 1017,8 10
13.11.2017 06:00:00 9,9 50 27 61 33 NNW 1017,2 10
13.11.2017 05:00:00 10,0 41 22 65 35 NW 1016,3 4,5
13.11.2017 04:00:00 10,0 54 29 68 37 NNW 1015,7 10
13.11.2017 03:00:00 10,2 54 29 76 41 NNW 1014,8 10
13.11.2017 02:00:00 9,7 42 23 68 37 NNW 1014,4 2,4
13.11.2017 01:00:00 10,2 52 28 65 35 NNW 1013,4 8
13.11.2017 00:00:00 10,5 55 30 72 39 NNW 1012,7 10
12.11.2017 23:00:00 10,5 57 31 72 39 NNW 1011,7 10
12.11.2017 22:00:00 9,7 35 19 - - NNW 1010,9 10
12.11.2017 21:00:00 10,3 55 30 72 39 NNW 1009,8 10
12.11.2017 20:00:00 10,3 54 29 68 37 NNW 1008,5 10
12.11.2017 19:00:00 9,9 57 31 - - NNW 1007,0 10
12.11.2017 18:00:00 10,1 52 28 72 39 NNW 1005,5 3,5
12.11.2017 17:00:00 9,7 57 31 68 37 NNW 1004,0 10
12.11.2017 16:00:00 8,6 55 30 83 45 NNW 1003,2 4,1
12.11.2017 15:00:00 8,5 41 22 58 31 NW 1002,1 10
12.11.2017 14:00:00 8,6 44 24 58 31 NW 1001,7 10
12.11.2017 13:00:00 8,0 41 22 58 31 NW 1001,7 8
12.11.2017 12:00:00 6,9 42 23 58 31 WNW 1001,5 10
12.11.2017 11:00:00 7,6 37 20 58 31 W 1001,7 10
12.11.2017 10:00:00 8,7 34 18 54 29 - 1001,6 10
12.11.2017 09:00:00 8,8 44 24 54 29 W 1002,0 10
12.11.2017 08:00:00 8,9 37 20 47 25 - 1002,4 10
12.11.2017 07:00:00 8,9 31 17 47 25 W 1003,6 10
12.11.2017 06:00:00 8,9 34 18 43 23 - 1004,6 10
12.11.2017 05:00:00 9,0 34 18 40 21 - 1005,7 10
12.11.2017 04:00:00 9,0 29 16 36 19 - 1006,6 10
12.11.2017 03:00:00 9,3 28 15 32 18 - 1007,4 10
12.11.2017 02:00:00 9,4 22 12 32 18 - 1008,1 10
12.11.2017 01:00:00 9,5 28 15 36 19 - 1008,9 10
12.11.2017 00:00:00 9,9 16 9 29 16 WNW 1009,6 10
11.11.2017 23:00:00 9,9 21 11 36 19 WNW 1009,8 10
11.11.2017 22:00:00 9,0 28 15 40 21 WNW 1010,1 10
11.11.2017 21:00:00 9,9 21 11 36 19 W 1010,1 10
11.11.2017 20:00:00 9,9 28 15 36 19 WNW 1009,8 10
11.11.2017 19:00:00 9,1 28 15 - - NW 1009,6 10
11.11.2017 18:00:00 9,9 28 15 36 19 WNW 1008,9 10

tt = Température de l'air
ff = Vitesse du vent
fx = gusts
dd = Direction du vent
ppp = reduced air pressure
vv = visibility

stations d'obs. à proximité